首页
METAR-TAF:

METAR-TAF

机场 :

奧本, 苏格兰

纬度: 56-27-49N, 经度: 5-24-00W, 海拔: 7米

当前天气观测

该预报发布于6小时和8分钟前的15:50 UTC
风速15节,风向
温度 13°C
湿度 51%
气压 1019 hPa
能见度10公里或以上
1500米以下无云,无积雨云

METAR: EGEO 261550Z 01015KT CAVOK 13/03 Q1019

时间: 22:58 (21:58 UTC)

预报

该预报发布于8小时和3分钟前的13:55 UTC
预报有效从26日的 15点(UTC)到 26日的 17点(UTC)
风速9节,风向北转东北
能见度10公里或以上
少量云层高于4500英尺

TAF: EGEO 261355Z 2615/2617 03009KT 9999 FEW045

超过4000个机场的气象观测和天气预报(METAR&TAF报告)。

可查询的气象台以黄色和红色小点在地图上表示。

将鼠标移到小点上方,可查看气象台名称。

然后点击查看天气观测和预报。

如需切换地图:点击带黑十字的绿色按钮放大地图;点击带横线的绿色按钮缩小地图;或者点击绿色箭头查看邻近地区的地图。


METAR-TAF: